SWA559 KSAN-KFAT
Flight info
| Callsign | SWA559 |
|---|---|
| Flight time | 0h 51m |
| Altitude | 30000 |
| Route | PADRZ2 EHF TTE ALTTA9 |
| Aircraft | B38M/M-SDE1FGHILORVWXY/HB1 |
Departure
| Time | 2026-04-23 03:32 |
|---|---|
| Airport | San Diego International Airport (KSAN) |
Arrival
| Time | 2026-04-23 04:23 |
|---|---|
| Airport | Fresno Yosemite International Airport (KFAT) |
| Time | Latitude | Longitude | Altitude | Speed | Heading |
|---|---|---|---|---|---|
| 2026-04-23 03:00 | 32.73289 | -117.19554 | 26 ft | 0 kts | 275° |
| 2026-04-23 03:18 | 32.73289 | -117.19553 | 22 ft | 2 kts | 275° |
| 2026-04-23 03:18 | 32.73286 | -117.19523 | 26 ft | 4 kts | 283° |
| 2026-04-23 03:18 | 32.73278 | -117.19493 | 28 ft | 4 kts | 298° |
| 2026-04-23 03:18 | 32.73262 | -117.19472 | 24 ft | 4 kts | 342° |
| 2026-04-23 03:19 | 32.73249 | -117.19472 | 25 ft | 1 kts | 28° |
| 2026-04-23 03:19 | 32.73246 | -117.19474 | 25 ft | 0 kts | 28° |
| 2026-04-23 03:23 | 32.73250 | -117.19472 | 23 ft | 1 kts | 28° |
| 2026-04-23 03:24 | 32.73262 | -117.19464 | 26 ft | 2 kts | 28° |
| 2026-04-23 03:24 | 32.73279 | -117.19452 | 24 ft | 5 kts | 31° |
| 2026-04-23 03:24 | 32.73319 | -117.19421 | 25 ft | 10 kts | 36° |
| 2026-04-23 03:24 | 32.73341 | -117.19325 | 23 ft | 15 kts | 102° |
| 2026-04-23 03:25 | 32.73309 | -117.19195 | 25 ft | 17 kts | 106° |
| 2026-04-23 03:25 | 32.73275 | -117.19054 | 25 ft | 18 kts | 106° |
| 2026-04-23 03:25 | 32.73238 | -117.18901 | 26 ft | 20 kts | 106° |
| 2026-04-23 03:25 | 32.73198 | -117.18736 | 27 ft | 21 kts | 107° |
| 2026-04-23 03:26 | 32.73155 | -117.18559 | 28 ft | 23 kts | 106° |
| 2026-04-23 03:26 | 32.73110 | -117.18372 | 25 ft | 24 kts | 105° |
| 2026-04-23 03:26 | 32.73065 | -117.18186 | 22 ft | 22 kts | 105° |
| 2026-04-23 03:26 | 32.73019 | -117.17998 | 20 ft | 25 kts | 106° |
| 2026-04-23 03:27 | 32.72972 | -117.17809 | 18 ft | 20 kts | 106° |
| 2026-04-23 03:27 | 32.72952 | -117.17715 | 20 ft | 7 kts | 95° |
| 2026-04-23 03:27 | 32.72952 | -117.17700 | 19 ft | 0 kts | 91° |
| 2026-04-23 03:28 | 32.72952 | -117.17698 | 19 ft | 4 kts | 75° |
| 2026-04-23 03:29 | 32.72955 | -117.17693 | 19 ft | 0 kts | 60° |
| 2026-04-23 03:31 | 32.72971 | -117.17678 | 20 ft | 10 kts | 21° |
| 2026-04-23 03:31 | 32.73088 | -117.17870 | 20 ft | 69 kts | 289° |
| 2026-04-23 03:31 | 32.73305 | -117.18756 | 27 ft | 150 kts | 287° |
| 2026-04-23 03:31 | 32.73641 | -117.20093 | 580 ft | 179 kts | 286° |
| 2026-04-23 03:32 | 32.74001 | -117.21547 | 1243 ft | 196 kts | 285° |
| 2026-04-23 03:32 | 32.74382 | -117.23290 | 1777 ft | 240 kts | 284° |
| 2026-04-23 03:32 | 32.75007 | -117.25217 | 2800 ft | 253 kts | 299° |
| 2026-04-23 03:32 | 32.76065 | -117.26820 | 4277 ft | 245 kts | 313° |
| 2026-04-23 03:33 | 32.77249 | -117.28290 | 5223 ft | 255 kts | 310° |
| 2026-04-23 03:33 | 32.78447 | -117.29921 | 6278 ft | 259 kts | 308° |
| 2026-04-23 03:33 | 32.79579 | -117.31566 | 7283 ft | 263 kts | 308° |
| 2026-04-23 03:33 | 32.80743 | -117.33240 | 8308 ft | 264 kts | 307° |
| 2026-04-23 03:34 | 32.81890 | -117.34938 | 9350 ft | 266 kts | 306° |
| 2026-04-23 03:34 | 32.83038 | -117.36667 | 10299 ft | 270 kts | 306° |
| 2026-04-23 03:34 | 32.84230 | -117.38482 | 10851 ft | 288 kts | 306° |
| 2026-04-23 03:34 | 32.85485 | -117.40410 | 11434 ft | 301 kts | 306° |
| 2026-04-23 03:35 | 32.86772 | -117.42395 | 12294 ft | 302 kts | 306° |
| 2026-04-23 03:35 | 32.88052 | -117.44380 | 13173 ft | 305 kts | 306° |
| 2026-04-23 03:35 | 32.89343 | -117.46387 | 13999 ft | 307 kts | 305° |
| 2026-04-23 03:35 | 32.90626 | -117.48387 | 14724 ft | 310 kts | 305° |
| 2026-04-23 03:36 | 32.91939 | -117.50433 | 15426 ft | 314 kts | 304° |
| 2026-04-23 03:36 | 32.93297 | -117.52549 | 16129 ft | 318 kts | 304° |
| 2026-04-23 03:36 | 32.94632 | -117.54630 | 16808 ft | 322 kts | 304° |
| 2026-04-23 03:36 | 32.95992 | -117.56749 | 17478 ft | 325 kts | 303° |
| 2026-04-23 03:37 | 32.97375 | -117.58907 | 18151 ft | 329 kts | 303° |
| 2026-04-23 03:37 | 32.98771 | -117.61084 | 18751 ft | 332 kts | 303° |
| 2026-04-23 03:37 | 33.00181 | -117.63285 | 19339 ft | 334 kts | 303° |
| 2026-04-23 03:37 | 33.01590 | -117.65485 | 19919 ft | 337 kts | 303° |
| 2026-04-23 03:38 | 33.03016 | -117.67714 | 20493 ft | 339 kts | 303° |
| 2026-04-23 03:38 | 33.04451 | -117.69959 | 21066 ft | 341 kts | 303° |
| 2026-04-23 03:38 | 33.05900 | -117.72219 | 21636 ft | 344 kts | 304° |
| 2026-04-23 03:38 | 33.07641 | -117.74221 | 22228 ft | 352 kts | 314° |
| 2026-04-23 03:39 | 33.09503 | -117.76115 | 22781 ft | 354 kts | 313° |
| 2026-04-23 03:39 | 33.11386 | -117.78040 | 23309 ft | 358 kts | 313° |
| 2026-04-23 03:39 | 33.13288 | -117.79978 | 23857 ft | 360 kts | 313° |
| 2026-04-23 03:39 | 33.15189 | -117.81916 | 24325 ft | 362 kts | 313° |
| 2026-04-23 03:40 | 33.17116 | -117.83879 | 24805 ft | 364 kts | 313° |
| 2026-04-23 03:40 | 33.19051 | -117.85841 | 25275 ft | 367 kts | 314° |
| 2026-04-23 03:40 | 33.21029 | -117.87764 | 25733 ft | 369 kts | 314° |
| 2026-04-23 03:40 | 33.23024 | -117.89706 | 26191 ft | 371 kts | 314° |
| 2026-04-23 03:41 | 33.25028 | -117.91660 | 26623 ft | 373 kts | 314° |
| 2026-04-23 03:41 | 33.27045 | -117.93630 | 27061 ft | 376 kts | 314° |
| 2026-04-23 03:41 | 33.29079 | -117.95617 | 27495 ft | 378 kts | 314° |
| 2026-04-23 03:41 | 33.31119 | -117.97614 | 27922 ft | 380 kts | 314° |
| 2026-04-23 03:42 | 33.33163 | -117.99614 | 28453 ft | 379 kts | 314° |
| 2026-04-23 03:42 | 33.35197 | -118.01606 | 29023 ft | 377 kts | 314° |
| 2026-04-23 03:42 | 33.37223 | -118.03591 | 29565 ft | 376 kts | 314° |
| 2026-04-23 03:42 | 33.39246 | -118.05575 | 30033 ft | 376 kts | 314° |
| 2026-04-23 03:43 | 33.41280 | -118.07570 | 30136 ft | 384 kts | 314° |
| 2026-04-23 03:43 | 33.43372 | -118.09624 | 30106 ft | 394 kts | 314° |
| 2026-04-23 03:43 | 33.47695 | -118.13872 | 30114 ft | 408 kts | 314° |
| 2026-04-23 03:44 | 33.52084 | -118.18192 | 30118 ft | 408 kts | 314° |
| 2026-04-23 03:44 | 33.56451 | -118.22491 | 30119 ft | 409 kts | 315° |
| 2026-04-23 03:45 | 33.58922 | -118.24320 | 30117 ft | 420 kts | 329° |
| 2026-04-23 03:45 | 33.61589 | -118.25762 | 30077 ft | 421 kts | 327° |
| 2026-04-23 03:45 | 33.66898 | -118.28734 | 30102 ft | 421 kts | 328° |
| 2026-04-23 03:46 | 33.72076 | -118.31596 | 30096 ft | 422 kts | 328° |
| 2026-04-23 03:46 | 33.77493 | -118.34467 | 30121 ft | 424 kts | 330° |
| 2026-04-23 03:47 | 33.82885 | -118.37184 | 30102 ft | 423 kts | 330° |
| 2026-04-23 03:47 | 33.88310 | -118.39936 | 30087 ft | 423 kts | 329° |
| 2026-04-23 03:48 | 33.93737 | -118.42694 | 30101 ft | 423 kts | 329° |
| 2026-04-23 03:48 | 33.99170 | -118.45441 | 30095 ft | 425 kts | 332° |
| 2026-04-23 03:49 | 34.02108 | -118.46238 | 30095 ft | 439 kts | 346° |
| 2026-04-23 03:49 | 34.05131 | -118.46696 | 30088 ft | 439 kts | 344° |
| 2026-04-23 03:49 | 34.11182 | -118.47659 | 30093 ft | 440 kts | 345° |
| 2026-04-23 03:50 | 34.17252 | -118.48595 | 30087 ft | 439 kts | 345° |
| 2026-04-23 03:50 | 34.23328 | -118.49530 | 30086 ft | 439 kts | 345° |
| 2026-04-23 03:51 | 34.29357 | -118.50459 | 30085 ft | 439 kts | 345° |
| 2026-04-23 03:51 | 34.35419 | -118.51394 | 30085 ft | 439 kts | 344° |
| 2026-04-23 03:52 | 34.41470 | -118.52328 | 30092 ft | 439 kts | 344° |
| 2026-04-23 03:52 | 34.47541 | -118.53268 | 30096 ft | 439 kts | 344° |
| 2026-04-23 03:53 | 34.53602 | -118.54207 | 30093 ft | 439 kts | 344° |
| 2026-04-23 03:53 | 34.59675 | -118.55149 | 30110 ft | 440 kts | 344° |
| 2026-04-23 03:54 | 34.65737 | -118.56091 | 30112 ft | 440 kts | 344° |
| 2026-04-23 03:54 | 34.71809 | -118.57036 | 30110 ft | 440 kts | 344° |
| 2026-04-23 03:55 | 34.77881 | -118.57983 | 30120 ft | 440 kts | 344° |
| 2026-04-23 03:55 | 34.83954 | -118.58931 | 30129 ft | 440 kts | 344° |
| 2026-04-23 03:56 | 34.90033 | -118.59881 | 30141 ft | 440 kts | 344° |
| 2026-04-23 03:56 | 34.96112 | -118.60833 | 30154 ft | 440 kts | 344° |
| 2026-04-23 03:57 | 35.01763 | -118.62797 | 30136 ft | 412 kts | 320° |
| 2026-04-23 03:57 | 35.06329 | -118.66947 | 30153 ft | 408 kts | 315° |
| 2026-04-23 03:58 | 35.10738 | -118.71283 | 30155 ft | 406 kts | 314° |
| 2026-04-23 03:58 | 35.15082 | -118.75660 | 30159 ft | 405 kts | 313° |
| 2026-04-23 03:59 | 35.19410 | -118.80054 | 30146 ft | 403 kts | 313° |
| 2026-04-23 03:59 | 35.23719 | -118.84439 | 30149 ft | 403 kts | 313° |
| 2026-04-23 04:00 | 35.28010 | -118.88810 | 30133 ft | 401 kts | 313° |
| 2026-04-23 04:00 | 35.32304 | -118.93193 | 30142 ft | 401 kts | 313° |
| 2026-04-23 04:01 | 35.36570 | -118.97550 | 30157 ft | 390 kts | 313° |
| 2026-04-23 04:01 | 35.38621 | -118.99647 | 30166 ft | 379 kts | 312° |
| 2026-04-23 04:01 | 35.40629 | -119.01704 | 30163 ft | 376 kts | 312° |
| 2026-04-23 04:02 | 35.44641 | -119.05815 | 30152 ft | 375 kts | 312° |
| 2026-04-23 04:02 | 35.46770 | -119.07696 | 30139 ft | 386 kts | 324° |
| 2026-04-23 04:02 | 35.49358 | -119.08799 | 30145 ft | 405 kts | 340° |
| 2026-04-23 04:03 | 35.52238 | -119.08951 | 30159 ft | 425 kts | 355° |
| 2026-04-23 04:03 | 35.55199 | -119.08466 | 30150 ft | 430 kts | 357° |
| 2026-04-23 04:03 | 35.61092 | -119.07466 | 29452 ft | 427 kts | 358° |
| 2026-04-23 04:04 | 35.64033 | -119.06950 | 29024 ft | 426 kts | 358° |
| 2026-04-23 04:04 | 35.66980 | -119.06429 | 28611 ft | 428 kts | 358° |
| 2026-04-23 04:04 | 35.69922 | -119.05906 | 27935 ft | 428 kts | 358° |
| 2026-04-23 04:04 | 35.72870 | -119.05380 | 27209 ft | 430 kts | 358° |
| 2026-04-23 04:05 | 35.75836 | -119.04850 | 26535 ft | 430 kts | 358° |
| 2026-04-23 04:05 | 35.78796 | -119.04321 | 25845 ft | 431 kts | 359° |
| 2026-04-23 04:05 | 35.81733 | -119.03795 | 25179 ft | 432 kts | 359° |
| 2026-04-23 04:05 | 35.84698 | -119.03264 | 24644 ft | 429 kts | 359° |
| 2026-04-23 04:06 | 35.87661 | -119.02735 | 24157 ft | 424 kts | 358° |
| 2026-04-23 04:06 | 35.90525 | -119.02674 | 23647 ft | 398 kts | 343° |
| 2026-04-23 04:06 | 35.93139 | -119.03428 | 22830 ft | 379 kts | 335° |
| 2026-04-23 04:06 | 35.95634 | -119.04372 | 22003 ft | 371 kts | 334° |
| 2026-04-23 04:07 | 35.98048 | -119.05385 | 21231 ft | 363 kts | 333° |
| 2026-04-23 04:07 | 36.00400 | -119.06429 | 20516 ft | 356 kts | 333° |
| 2026-04-23 04:07 | 36.02703 | -119.07478 | 19855 ft | 349 kts | 333° |
| 2026-04-23 04:07 | 36.04924 | -119.08508 | 19271 ft | 342 kts | 333° |
| 2026-04-23 04:08 | 36.07128 | -119.09539 | 18709 ft | 335 kts | 333° |
| 2026-04-23 04:08 | 36.09278 | -119.10551 | 18187 ft | 326 kts | 333° |
| 2026-04-23 04:08 | 36.11355 | -119.11531 | 17704 ft | 316 kts | 333° |
| 2026-04-23 04:08 | 36.13384 | -119.12489 | 17248 ft | 306 kts | 333° |
| 2026-04-23 04:09 | 36.15340 | -119.13414 | 16831 ft | 297 kts | 333° |
| 2026-04-23 04:09 | 36.17240 | -119.14314 | 16448 ft | 287 kts | 333° |
| 2026-04-23 04:09 | 36.19080 | -119.15185 | 16003 ft | 281 kts | 333° |
| 2026-04-23 04:09 | 36.20908 | -119.16050 | 15430 ft | 279 kts | 333° |
| 2026-04-23 04:10 | 36.22714 | -119.16906 | 14903 ft | 277 kts | 334° |
| 2026-04-23 04:10 | 36.24513 | -119.17760 | 14366 ft | 276 kts | 334° |
| 2026-04-23 04:10 | 36.26305 | -119.18610 | 13948 ft | 276 kts | 334° |
| 2026-04-23 04:10 | 36.28086 | -119.19456 | 13621 ft | 274 kts | 335° |
| 2026-04-23 04:11 | 36.29864 | -119.20301 | 13248 ft | 273 kts | 335° |
| 2026-04-23 04:11 | 36.31641 | -119.21145 | 12883 ft | 273 kts | 335° |
| 2026-04-23 04:11 | 36.33397 | -119.21979 | 12581 ft | 266 kts | 335° |
| 2026-04-23 04:11 | 36.35113 | -119.22796 | 12238 ft | 263 kts | 335° |
| 2026-04-23 04:12 | 36.36836 | -119.23616 | 11893 ft | 267 kts | 336° |
| 2026-04-23 04:12 | 36.38578 | -119.24445 | 11547 ft | 269 kts | 336° |
| 2026-04-23 04:12 | 36.40319 | -119.25274 | 11215 ft | 268 kts | 336° |
| 2026-04-23 04:12 | 36.42062 | -119.26105 | 10839 ft | 268 kts | 337° |
| 2026-04-23 04:13 | 36.43791 | -119.26928 | 10387 ft | 267 kts | 337° |
| 2026-04-23 04:13 | 36.45526 | -119.27756 | 9922 ft | 266 kts | 337° |
| 2026-04-23 04:13 | 36.47247 | -119.28578 | 9393 ft | 265 kts | 338° |
| 2026-04-23 04:13 | 36.48953 | -119.29427 | 8901 ft | 263 kts | 332° |
| 2026-04-23 04:14 | 36.50351 | -119.30832 | 8399 ft | 254 kts | 314° |
| 2026-04-23 04:14 | 36.51560 | -119.32384 | 7913 ft | 245 kts | 314° |
| 2026-04-23 04:14 | 36.52702 | -119.33865 | 7444 ft | 237 kts | 314° |
| 2026-04-23 04:14 | 36.53825 | -119.35334 | 6969 ft | 231 kts | 314° |
| 2026-04-23 04:15 | 36.54926 | -119.36782 | 6485 ft | 225 kts | 313° |
| 2026-04-23 04:15 | 36.55993 | -119.38190 | 6000 ft | 221 kts | 313° |
| 2026-04-23 04:15 | 36.58040 | -119.40904 | 5020 ft | 208 kts | 313° |
| 2026-04-23 04:16 | 36.58997 | -119.42173 | 4527 ft | 189 kts | 314° |
| 2026-04-23 04:16 | 36.59845 | -119.43299 | 4035 ft | 174 kts | 314° |
| 2026-04-23 04:16 | 36.60661 | -119.44384 | 3641 ft | 169 kts | 314° |
| 2026-04-23 04:16 | 36.61466 | -119.45453 | 3447 ft | 169 kts | 314° |
| 2026-04-23 04:17 | 36.62267 | -119.46519 | 3470 ft | 169 kts | 314° |
| 2026-04-23 04:17 | 36.62813 | -119.47245 | 3488 ft | 170 kts | 314° |
| 2026-04-23 04:17 | 36.63940 | -119.48588 | 3483 ft | 169 kts | 320° |
| 2026-04-23 04:17 | 36.64763 | -119.49576 | 3492 ft | 158 kts | 314° |
| 2026-04-23 04:18 | 36.65252 | -119.50261 | 3496 ft | 155 kts | 311° |
| 2026-04-23 04:18 | 36.65925 | -119.51292 | 3440 ft | 152 kts | 309° |
| 2026-04-23 04:18 | 36.66567 | -119.52346 | 3455 ft | 153 kts | 308° |
| 2026-04-23 04:18 | 36.67188 | -119.53400 | 3473 ft | 153 kts | 307° |
| 2026-04-23 04:19 | 36.67814 | -119.54480 | 3382 ft | 154 kts | 307° |
| 2026-04-23 04:19 | 36.68427 | -119.55559 | 3172 ft | 152 kts | 306° |
| 2026-04-23 04:19 | 36.69011 | -119.56660 | 2950 ft | 152 kts | 305° |
| 2026-04-23 04:19 | 36.69603 | -119.57746 | 2767 ft | 152 kts | 308° |
| 2026-04-23 04:20 | 36.70225 | -119.58794 | 2566 ft | 149 kts | 310° |
| 2026-04-23 04:20 | 36.70847 | -119.59823 | 2407 ft | 149 kts | 307° |
| 2026-04-23 04:20 | 36.71435 | -119.60881 | 2177 ft | 148 kts | 306° |
| 2026-04-23 04:20 | 36.72042 | -119.61904 | 2019 ft | 146 kts | 308° |
| 2026-04-23 04:21 | 36.72616 | -119.62948 | 1834 ft | 145 kts | 306° |
| 2026-04-23 04:21 | 36.73213 | -119.63965 | 1615 ft | 145 kts | 308° |
| 2026-04-23 04:21 | 36.73806 | -119.64997 | 1387 ft | 147 kts | 306° |
| 2026-04-23 04:21 | 36.74398 | -119.66032 | 1248 ft | 146 kts | 308° |
| 2026-04-23 04:22 | 36.75009 | -119.67061 | 1085 ft | 153 kts | 307° |
| 2026-04-23 04:22 | 36.75608 | -119.68112 | 856 ft | 145 kts | 304° |
| 2026-04-23 04:22 | 36.76175 | -119.69123 | 626 ft | 141 kts | 304° |
| 2026-04-23 04:22 | 36.76737 | -119.70106 | 455 ft | 137 kts | 305° |
| 2026-04-23 04:23 | 36.77272 | -119.71037 | 346 ft | 122 kts | 306° |
| 2026-04-23 04:23 | 36.77597 | -119.71602 | 351 ft | 30 kts | 303° |
| 2026-04-23 04:23 | 36.77649 | -119.71826 | 344 ft | 29 kts | 277° |
| 2026-04-23 04:23 | 36.77651 | -119.72020 | 339 ft | 21 kts | 255° |
| 2026-04-23 04:24 | 36.77539 | -119.72083 | 350 ft | 19 kts | 156° |
| 2026-04-23 04:24 | 36.77435 | -119.72013 | 353 ft | 16 kts | 150° |
| 2026-04-23 04:24 | 36.77320 | -119.71949 | 348 ft | 24 kts | 155° |
| 2026-04-23 04:24 | 36.77288 | -119.71849 | 343 ft | 13 kts | 100° |
| 2026-04-23 04:25 | 36.77259 | -119.71808 | 343 ft | 4 kts | 180° |
| 2026-04-23 04:25 | 36.77233 | -119.71825 | 351 ft | 4 kts | 219° |
| 2026-04-23 04:25 | 36.77223 | -119.71833 | 348 ft | 0 kts | 215° |
| 2026-04-23 04:25 | 36.77222 | -119.71834 | 347 ft | 0 kts | 215° |